Time,TemperatureF,DewpointF,PressureIn,WindDirection,WindDirectionDegrees,WindSpeedMPH,WindSpeedGustMPH,Humidity,HourlyPrecipIn,Conditions,Clouds,dailyrainin,SolarRadiationWatts/m^2,SoftwareType,DateUTC
2013-02-11 01:00:00,13.0,11.0,30.12,SW,232,2.0,-999.0,91,-99.99,,,-99.99,0.000000,,2013-02-11 08:00:00,
2013-02-11 01:52:00,13.0,11.0,30.12,SW,232,2.0,-999.0,91,-99.99,,,-99.99,0.000000,,2013-02-11 08:52:00,
2013-02-11 02:00:00,2.0,0.0,30.11,West,262,3.0,-999.0,90,-99.99,,,-99.99,0.000000,,2013-02-11 09:00:00,
2013-02-11 02:52:00,2.0,0.0,30.11,West,262,3.0,-999.0,90,-99.99,,,-99.99,0.000000,,2013-02-11 09:52:00,
2013-02-11 03:00:00,9.0,8.0,30.10,West,271,2.0,-999.0,92,-99.99,,,-99.99,0.000000,,2013-02-11 10:00:00,
2013-02-11 03:52:00,9.0,8.0,30.10,West,271,2.0,-999.0,92,-99.99,,,-99.99,0.000000,,2013-02-11 10:52:00,
2013-02-11 04:00:00,7.0,4.0,30.07,SW,227,5.0,-999.0,88,-99.99,,,-99.99,0.000000,,2013-02-11 11:00:00,
2013-02-11 04:52:00,7.0,4.0,30.07,SW,227,5.0,-999.0,88,-99.99,,,-99.99,0.000000,,2013-02-11 11:52:00,
2013-02-11 05:00:00,6.0,3.0,30.05,SSW,201,2.0,-999.0,88,-99.99,,,-99.99,0.000000,,2013-02-11 12:00:00,
2013-02-11 05:52:00,6.0,3.0,30.05,SSW,201,2.0,-999.0,88,-99.99,,,-99.99,0.000000,,2013-02-11 12:52:00,
2013-02-11 06:00:00,8.0,5.0,30.04,South,187,4.0,-999.0,88,-99.99,,,-99.99,0.000000,,2013-02-11 13:00:00,
2013-02-11 06:52:00,8.0,5.0,30.04,South,187,4.0,-999.0,88,-99.99,,,-99.99,0.000000,,2013-02-11 13:52:00,
2013-02-11 07:00:00,7.0,4.0,30.02,South,191,6.0,-999.0,88,-99.99,,,-99.99,0.000000,,2013-02-11 14:00:00,
2013-02-11 07:53:00,7.0,4.0,30.02,South,191,6.0,-999.0,88,-99.99,,,-99.99,0.000000,,2013-02-11 14:53:00,
2013-02-11 08:00:00,8.0,5.0,30.02,South,176,6.0,-999.0,87,-99.99,,,-99.99,20.770000,,2013-02-11 15:00:00,
2013-02-11 08:52:00,8.0,5.0,30.02,South,176,6.0,-999.0,87,-99.99,,,-99.99,20.770000,,2013-02-11 15:52:00,
2013-02-11 09:00:00,14.0,8.0,30.00,South,189,9.0,-999.0,79,-99.99,,,-99.99,145.800003,,2013-02-11 16:00:00,
2013-02-11 09:52:00,14.0,8.0,30.00,South,189,9.0,-999.0,79,-99.99,,,-99.99,145.800003,,2013-02-11 16:52:00,
2013-02-11 10:00:00,18.0,11.0,29.99,SSW,202,12.0,-999.0,73,-99.99,,,-99.99,267.700012,,2013-02-11 17:00:00,
2013-02-11 10:53:00,18.0,11.0,29.99,SSW,202,12.0,-999.0,73,-99.99,,,-99.99,267.700012,,2013-02-11 17:53:00,
2013-02-11 11:00:00,23.0,13.0,29.99,SSW,202,12.0,-999.0,65,-99.99,,,-99.99,365.399994,,2013-02-11 18:00:00,
2013-02-11 11:53:00,23.0,13.0,29.99,SSW,202,12.0,-999.0,65,-99.99,,,-99.99,365.399994,,2013-02-11 18:53:00,
2013-02-11 13:00:00,29.0,16.0,29.96,SW,221,10.0,-999.0,59,-99.99,,,-99.99,318.899994,,2013-02-11 20:00:00,
2013-02-11 13:52:00,29.0,16.0,29.96,SW,221,10.0,-999.0,59,-99.99,,,-99.99,318.899994,,2013-02-11 20:52:00,
2013-02-11 14:00:00,30.0,19.0,29.94,SW,229,9.0,-999.0,63,-99.99,,,-99.99,244.300003,,2013-02-11 21:00:00,
2013-02-11 14:52:00,30.0,19.0,29.94,SW,229,9.0,-999.0,63,-99.99,,,-99.99,244.300003,,2013-02-11 21:52:00,
2013-02-11 15:00:00,31.0,18.0,29.94,SW,235,10.0,-999.0,58,-99.99,,,-99.99,196.300003,,2013-02-11 22:00:00,
2013-02-11 15:52:00,31.0,18.0,29.94,SW,235,10.0,-999.0,58,-99.99,,,-99.99,196.300003,,2013-02-11 22:52:00,
2013-02-11 16:00:00,32.0,18.0,29.93,WSW,241,9.0,-999.0,57,-99.99,,,-99.99,196.000000,,2013-02-11 23:00:00,
2013-02-11 16:52:00,32.0,18.0,29.93,WSW,241,9.0,-999.0,57,-99.99,,,-99.99,196.000000,,2013-02-11 23:52:00,
2013-02-11 17:00:00,31.0,18.0,29.93,WSW,245,4.0,-999.0,58,-99.99,,,-99.99,98.199997,,2013-02-12 00:00:00,
2013-02-11 17:52:00,31.0,18.0,29.93,WSW,245,4.0,-999.0,58,-99.99,,,-99.99,98.199997,,2013-02-12 00:52:00,
2013-02-11 18:00:00,23.0,15.0,29.93,West,261,1.0,-999.0,71,-99.99,,,-99.99,6.910000,,2013-02-12 01:00:00,
2013-02-11 18:52:00,23.0,15.0,29.93,West,261,1.0,-999.0,71,-99.99,,,-99.99,6.910000,,2013-02-12 01:52:00,
2013-02-11 19:00:00,23.0,16.0,29.93,WSW,244,4.0,-999.0,73,-99.99,,,-99.99,0.000000,,2013-02-12 02:00:00,
2013-02-11 19:52:00,23.0,16.0,29.93,WSW,244,4.0,-999.0,73,-99.99,,,-99.99,0.000000,,2013-02-12 02:52:00,
2013-02-11 20:00:00,27.0,18.0,29.94,WSW,257,4.0,-999.0,68,-99.99,,,-99.99,0.000000,,2013-02-12 03:00:00,
2013-02-11 20:52:00,27.0,18.0,29.94,WSW,257,4.0,-999.0,68,-99.99,,,-99.99,0.000000,,2013-02-12 03:52:00,
2013-02-11 21:00:00,27.0,18.0,29.94,West,276,5.0,-999.0,68,-99.99,,,-99.99,0.000000,,2013-02-12 04:00:00,
2013-02-11 21:52:00,27.0,18.0,29.94,West,276,5.0,-999.0,68,-99.99,,,-99.99,0.000000,,2013-02-12 04:52:00,
2013-02-11 22:00:00,26.0,18.0,29.94,WNW,292,7.0,-999.0,72,-99.99,,,-99.99,0.000000,,2013-02-12 05:00:00,
2013-02-11 22:52:00,26.0,18.0,29.94,WNW,292,7.0,-999.0,72,-99.99,,,-99.99,0.000000,,2013-02-12 05:52:00,
2013-02-11 23:00:00,26.0,19.0,29.94,WNW,282,6.0,-999.0,73,-99.99,,,-99.99,0.000000,,2013-02-12 06:00:00,
2013-02-11 23:52:00,26.0,19.0,29.94,WNW,282,6.0,-999.0,73,-99.99,,,-99.99,0.000000,,2013-02-12 06:52:00,